createdAt,value
2023-03-22T00:12:52.319Z,68.39
2023-03-22T00:27:55.844Z,69.92
2023-03-22T00:42:59.190Z,74.65
2023-03-22T00:58:04.295Z,75.02
2023-03-22T01:13:08.474Z,76.60
2023-03-22T01:28:11.756Z,76.78
2023-03-22T01:43:17.488Z,77.16
2023-03-22T01:58:21.418Z,77.82
2023-03-22T02:13:59.260Z,78.04
2023-03-22T02:29:46.571Z,78.13
2023-03-22T02:45:11.571Z,78.34
2023-03-22T03:00:18.817Z,78.87
2023-03-22T03:15:23.956Z,80.25
2023-03-22T03:30:41.022Z,80.15
2023-03-22T03:45:44.935Z,80.59
2023-03-22T04:00:49.588Z,80.30
2023-03-22T04:16:11.456Z,81.23
2023-03-22T04:31:14.833Z,81.76
2023-03-22T04:46:25.987Z,81.37
2023-03-22T05:01:36.080Z,80.77
2023-03-22T05:16:46.629Z,82.59
2023-03-22T05:31:50.068Z,83.74
2023-03-22T05:46:53.652Z,84.33
2023-03-22T06:02:08.692Z,84.32
2023-03-22T06:17:12.285Z,84.89
2023-03-22T06:32:17.143Z,86.02
2023-03-22T06:47:20.808Z,86.24
2023-03-22T07:02:32.562Z,88.82
2023-03-22T07:17:50.919Z,89.90
2023-03-22T07:32:54.211Z,90.75
2023-03-22T07:47:57.660Z,92.47
2023-03-22T08:03:22.429Z,93.69
2023-03-22T08:18:34.263Z,95.43
2023-03-22T08:33:37.851Z,96.53
2023-03-22T08:48:41.852Z,96.93
2023-03-22T09:03:51.315Z,97.49
2023-03-22T09:18:54.986Z,97.25
2023-03-22T09:33:59.102Z,97.66
2023-03-22T09:49:08.129Z,97.46
2023-03-22T10:04:34.849Z,99.26
2023-03-22T10:20:00.303Z,99.90
2023-03-22T10:35:03.871Z,99.62
2023-03-22T10:50:24.250Z,99.95
2023-03-22T11:05:30.425Z,99.99
2023-03-22T11:20:35.087Z,100.00
2023-03-22T11:35:39.995Z,100.00
2023-03-22T11:50:45.049Z,99.55
2023-03-22T12:05:52.550Z,98.59
2023-03-22T12:20:58.542Z,98.57
2023-03-22T12:36:07.252Z,98.11
2023-03-22T12:51:13.281Z,97.67
2023-03-22T13:06:55.103Z,97.13
2023-03-22T13:22:19.447Z,95.30
2023-03-22T13:37:46.172Z,93.63
2023-03-22T13:53:08.187Z,92.84
2023-03-22T14:08:21.868Z,91.70
